sensor_id;sensor_type;location;lat;lon;timestamp;pressure;altitude;pressure_sealevel;temperature;humidity
79799;BME280;69283;48.024;11.090;2023-05-07T00:01:30;95326.41;;;11.11;80.44
79799;BME280;69283;48.024;11.090;2023-05-07T00:03:56;95328.34;;;11.10;80.39
79799;BME280;69283;48.024;11.090;2023-05-07T00:06:21;95325.53;;;11.07;80.60
79799;BME280;69283;48.024;11.090;2023-05-07T00:08:47;95333.66;;;11.07;80.51
79799;BME280;69283;48.024;11.090;2023-05-07T00:11:12;95325.53;;;11.07;80.43
79799;BME280;69283;48.024;11.090;2023-05-07T00:13:38;95320.88;;;11.07;80.13
79799;BME280;69283;48.024;11.090;2023-05-07T00:16:03;95322.03;;;11.06;80.10
79799;BME280;69283;48.024;11.090;2023-05-07T00:18:29;95318.97;;;11.08;80.57
79799;BME280;69283;48.024;11.090;2023-05-07T00:20:54;95314.69;;;11.07;80.01
79799;BME280;69283;48.024;11.090;2023-05-07T00:23:21;95310.03;;;11.07;79.83
79799;BME280;69283;48.024;11.090;2023-05-07T00:25:46;95312.41;;;11.09;80.08
79799;BME280;69283;48.024;11.090;2023-05-07T00:28:11;95310.59;;;11.01;80.30
79799;BME280;69283;48.024;11.090;2023-05-07T00:30:36;95317.81;;;10.96;80.19
79799;BME280;69283;48.024;11.090;2023-05-07T00:33:02;95310.03;;;10.95;80.25
79799;BME280;69283;48.024;11.090;2023-05-07T00:35:28;95311.16;;;10.94;80.40
79799;BME280;69283;48.024;11.090;2023-05-07T00:37:54;95302.25;;;10.93;80.91
79799;BME280;69283;48.024;11.090;2023-05-07T00:40:20;95304.28;;;10.96;80.53
79799;BME280;69283;48.024;11.090;2023-05-07T00:42:45;95296.59;;;10.86;81.24
79799;BME280;69283;48.024;11.090;2023-05-07T00:45:13;95303.38;;;10.92;81.01
79799;BME280;69283;48.024;11.090;2023-05-07T00:47:38;95307.78;;;10.97;80.99
79799;BME280;69283;48.024;11.090;2023-05-07T00:50:05;95309.69;;;10.96;80.92
79799;BME280;69283;48.024;11.090;2023-05-07T00:52:30;95313.19;;;10.97;80.94
79799;BME280;69283;48.024;11.090;2023-05-07T00:54:56;95306.44;;;10.91;81.01
79799;BME280;69283;48.024;11.090;2023-05-07T00:57:21;95303.25;;;10.89;81.02
79799;BME280;69283;48.024;11.090;2023-05-07T00:59:48;95310.59;;;10.88;81.30
79799;BME280;69283;48.024;11.090;2023-05-07T01:02:13;95304.84;;;10.90;80.67
79799;BME280;69283;48.024;11.090;2023-05-07T01:04:39;95308.47;;;10.82;81.71
79799;BME280;69283;48.024;11.090;2023-05-07T01:07:04;95309.91;;;10.79;81.51
79799;BME280;69283;48.024;11.090;2023-05-07T01:09:30;95307.00;;;10.84;81.22
79799;BME280;69283;48.024;11.090;2023-05-07T01:11:57;95302.25;;;10.81;80.91
79799;BME280;69283;48.024;11.090;2023-05-07T01:14:23;95301.13;;;10.82;81.29
79799;BME280;69283;48.024;11.090;2023-05-07T01:16:49;95296.50;;;10.83;80.69
79799;BME280;69283;48.024;11.090;2023-05-07T01:19:18;95300.53;;;10.77;81.15
79799;BME280;69283;48.024;11.090;2023-05-07T01:21:47;95288.69;;;10.69;80.94
79799;BME280;69283;48.024;11.090;2023-05-07T01:24:14;95290.94;;;10.67;80.58
79799;BME280;69283;48.024;11.090;2023-05-07T01:26:39;95287.78;;;10.65;80.68
79799;BME280;69283;48.024;11.090;2023-05-07T01:29:05;95287.41;;;10.54;82.26
79799;BME280;69283;48.024;11.090;2023-05-07T01:31:30;95293.41;;;10.60;81.34
79799;BME280;69283;48.024;11.090;2023-05-07T01:33:59;95288.91;;;10.64;81.47
79799;BME280;69283;48.024;11.090;2023-05-07T01:36:25;95290.03;;;10.63;81.30
79799;BME280;69283;48.024;11.090;2023-05-07T01:38:52;95282.25;;;10.61;81.61
79799;BME280;69283;48.024;11.090;2023-05-07T01:41:19;95280.00;;;10.63;81.47
79799;BME280;69283;48.024;11.090;2023-05-07T01:43:46;95285.75;;;10.62;81.97
79799;BME280;69283;48.024;11.090;2023-05-07T01:46:12;95270.59;;;10.61;82.10
79799;BME280;69283;48.024;11.090;2023-05-07T01:48:38;95270.59;;;10.61;82.08
79799;BME280;69283;48.024;11.090;2023-05-07T01:51:04;95270.94;;;10.59;81.69
79799;BME280;69283;48.024;11.090;2023-05-07T01:53:35;95283.03;;;10.62;81.98
79799;BME280;69283;48.024;11.090;2023-05-07T01:56:01;95279.84;;;10.60;81.62
79799;BME280;69283;48.024;11.090;2023-05-07T01:58:26;95284.38;;;10.56;81.22
79799;BME280;69283;48.024;11.090;2023-05-07T02:00:52;95285.06;;;10.53;81.24
79799;BME280;69283;48.024;11.090;2023-05-07T02:03:17;95289.69;;;10.52;81.42
79799;BME280;69283;48.024;11.090;2023-05-07T02:05:42;95292.84;;;10.54;81.13
79799;BME280;69283;48.024;11.090;2023-05-07T02:08:07;95286.06;;;10.48;81.13
79799;BME280;69283;48.024;11.090;2023-05-07T02:10:33;95298.16;;;10.51;81.62
79799;BME280;69283;48.024;11.090;2023-05-07T02:12:58;95294.50;;;10.34;82.02
79799;BME280;69283;48.024;11.090;2023-05-07T02:15:26;95300.81;;;10.39;81.66
79799;BME280;69283;48.024;11.090;2023-05-07T02:18:05;95303.06;;;10.36;81.78
79799;BME280;69283;48.024;11.090;2023-05-07T02:20:31;95302.16;;;10.32;82.00
79799;BME280;69283;48.024;11.090;2023-05-07T02:22:56;95303.28;;;10.31;82.36
79799;BME280;69283;48.024;11.090;2023-05-07T02:25:22;95301.72;;;10.30;82.60
79799;BME280;69283;48.024;11.090;2023-05-07T02:27:47;95308.94;;;10.26;82.96
79799;BME280;69283;48.024;11.090;2023-05-07T02:30:13;95302.38;;;10.27;82.59
79799;BME280;69283;48.024;11.090;2023-05-07T02:32:39;95300.69;;;10.23;83.60
79799;BME280;69283;48.024;11.090;2023-05-07T02:35:05;95303.41;;;10.23;84.38
79799;BME280;69283;48.024;11.090;2023-05-07T02:37:30;95303.06;;;10.24;82.90
79799;BME280;69283;48.024;11.090;2023-05-07T02:39:56;95302.78;;;10.17;84.31
79799;BME280;69283;48.024;11.090;2023-05-07T02:42:21;95309.31;;;10.16;85.16
79799;BME280;69283;48.024;11.090;2023-05-07T02:44:46;95304.97;;;10.24;84.10
79799;BME280;69283;48.024;11.090;2023-05-07T02:47:14;95311.19;;;10.24;84.38
79799;BME280;69283;48.024;11.090;2023-05-07T02:49:40;95302.38;;;10.27;84.34
79799;BME280;69283;48.024;11.090;2023-05-07T02:52:05;95303.19;;;10.28;83.73
79799;BME280;69283;48.024;11.090;2023-05-07T02:54:30;95301.38;;;10.32;83.58
79799;BME280;69283;48.024;11.090;2023-05-07T02:56:56;95303.75;;;10.33;83.72
79799;BME280;69283;48.024;11.090;2023-05-07T02:59:21;95306.47;;;10.33;83.49
79799;BME280;69283;48.024;11.090;2023-05-07T03:01:47;95298.88;;;10.27;83.30
79799;BME280;69283;48.024;11.090;2023-05-07T03:04:13;95300.81;;;10.26;83.32
79799;BME280;69283;48.024;11.090;2023-05-07T03:06:38;95299.56;;;10.24;83.66
79799;BME280;69283;48.024;11.090;2023-05-07T03:09:03;95290.81;;;10.18;83.39
79799;BME280;69283;48.024;11.090;2023-05-07T03:11:29;95287.94;;;10.23;83.65
79799;BME280;69283;48.024;11.090;2023-05-07T03:13:54;95277.56;;;10.25;83.38
79799;BME280;69283;48.024;11.090;2023-05-07T03:16:20;95275.53;;;10.22;82.92
79799;BME280;69283;48.024;11.090;2023-05-07T03:18:45;95278.06;;;10.19;83.94
79799;BME280;69283;48.024;11.090;2023-05-07T03:21:11;95280.78;;;10.19;83.94
79799;BME280;69283;48.024;11.090;2023-05-07T03:23:36;95283.56;;;10.10;84.23
79799;BME280;69283;48.024;11.090;2023-05-07T03:26:01;95285.03;;;10.07;84.01
79799;BME280;69283;48.024;11.090;2023-05-07T03:28:27;95282.91;;;10.13;83.88
79799;BME280;69283;48.024;11.090;2023-05-07T03:30:52;95285.41;;;10.18;83.18
79799;BME280;69283;48.024;11.090;2023-05-07T03:33:17;95284.47;;;10.14;83.54
79799;BME280;69283;48.024;11.090;2023-05-07T03:35:42;95288.19;;;10.10;82.24
79799;BME280;69283;48.024;11.090;2023-05-07T03:38:08;95288.19;;;10.10;82.88
79799;BME280;69283;48.024;11.090;2023-05-07T03:40:33;95290.00;;;10.05;82.19
79799;BME280;69283;48.024;11.090;2023-05-07T03:42:59;95294.50;;;10.01;82.65
79799;BME280;69283;48.024;11.090;2023-05-07T03:45:25;95292.31;;;9.95;83.08
79799;BME280;69283;48.024;11.090;2023-05-07T03:47:50;95297.72;;;9.95;82.70
79799;BME280;69283;48.024;11.090;2023-05-07T03:50:16;95300.09;;;9.96;83.39
79799;BME280;69283;48.024;11.090;2023-05-07T03:52:41;95302.69;;;9.93;83.24
79799;BME280;69283;48.024;11.090;2023-05-07T03:55:06;95302.47;;;9.98;82.98
79799;BME280;69283;48.024;11.090;2023-05-07T03:57:32;95296.94;;;9.94;83.05
79799;BME280;69283;48.024;11.090;2023-05-07T03:59:57;95306.19;;;9.93;81.79
79799;BME280;69283;48.024;11.090;2023-05-07T04:02:23;95306.06;;;9.90;82.36
79799;BME280;69283;48.024;11.090;2023-05-07T04:04:49;95311.25;;;9.83;82.84
79799;BME280;69283;48.024;11.090;2023-05-07T04:07:14;95310.75;;;9.81;82.27
79799;BME280;69283;48.024;11.090;2023-05-07T04:09:40;95307.47;;;9.75;83.15
79799;BME280;69283;48.024;11.090;2023-05-07T04:12:05;95315.00;;;9.69;83.88
79799;BME280;69283;48.024;11.090;2023-05-07T04:14:30;95314.66;;;9.71;83.03
79799;BME280;69283;48.024;11.090;2023-05-07T04:16:57;95310.38;;;9.70;83.79
79799;BME280;69283;48.024;11.090;2023-05-07T04:19:23;95313.88;;;9.70;83.81
79799;BME280;69283;48.024;11.090;2023-05-07T04:21:48;95316.38;;;9.75;82.18
79799;BME280;69283;48.024;11.090;2023-05-07T04:24:13;95316.25;;;9.72;82.59
79799;BME280;69283;48.024;11.090;2023-05-07T04:26:39;95313.66;;;9.75;83.00
79799;BME280;69283;48.024;11.090;2023-05-07T04:29:05;95324.50;;;9.75;83.26
79799;BME280;69283;48.024;11.090;2023-05-07T04:31:30;95309.50;;;9.78;82.90
79799;BME280;69283;48.024;11.090;2023-05-07T04:33:56;95317.94;;;9.76;83.20
79799;BME280;69283;48.024;11.090;2023-05-07T04:36:22;95325.75;;;9.78;83.03
79799;BME280;69283;48.024;11.090;2023-05-07T04:38:47;95323.50;;;9.80;83.16
79799;BME280;69283;48.024;11.090;2023-05-07T04:41:12;95326.97;;;9.81;83.18
79799;BME280;69283;48.024;11.090;2023-05-07T04:43:38;95323.81;;;9.79;82.79
79799;BME280;69283;48.024;11.090;2023-05-07T04:46:03;95320.31;;;9.78;83.22
79799;BME280;69283;48.024;11.090;2023-05-07T04:48:29;95328.25;;;9.83;82.93
79799;BME280;69283;48.024;11.090;2023-05-07T04:50:54;95329.31;;;9.91;83.13
79799;BME280;69283;48.024;11.090;2023-05-07T04:53:20;95324.00;;;9.94;83.12
79799;BME280;69283;48.024;11.090;2023-05-07T04:55:45;95319.97;;;10.00;83.15
79799;BME280;69283;48.024;11.090;2023-05-07T04:58:11;95330.06;;;10.12;83.63
79799;BME280;69283;48.024;11.090;2023-05-07T05:00:37;95328.91;;;10.22;82.80
79799;BME280;69283;48.024;11.090;2023-05-07T05:03:03;95325.63;;;10.28;82.91
79799;BME280;69283;48.024;11.090;2023-05-07T05:05:28;95332.88;;;10.36;82.59
79799;BME280;69283;48.024;11.090;2023-05-07T05:07:54;95331.78;;;10.50;81.83
79799;BME280;69283;48.024;11.090;2023-05-07T05:10:19;95321.88;;;10.66;82.52
79799;BME280;69283;48.024;11.090;2023-05-07T05:12:44;95327.56;;;10.85;82.57
79799;BME280;69283;48.024;11.090;2023-05-07T05:15:12;95329.38;;;11.06;81.71
79799;BME280;69283;48.024;11.090;2023-05-07T05:17:38;95329.94;;;11.23;81.78
79799;BME280;69283;48.024;11.090;2023-05-07T05:20:04;95325.38;;;11.40;80.85
79799;BME280;69283;48.024;11.090;2023-05-07T05:22:30;95331.34;;;11.57;80.48
79799;BME280;69283;48.024;11.090;2023-05-07T05:24:56;95327.00;;;11.81;80.85
79799;BME280;69283;48.024;11.090;2023-05-07T05:27:21;95322.53;;;12.01;80.03
79799;BME280;69283;48.024;11.090;2023-05-07T05:29:47;95323.81;;;12.19;79.70
79799;BME280;69283;48.024;11.090;2023-05-07T05:32:12;95327.00;;;12.37;79.64
79799;BME280;69283;48.024;11.090;2023-05-07T05:34:37;95325.13;;;12.53;79.60
79799;BME280;69283;48.024;11.090;2023-05-07T05:37:03;95328.81;;;12.76;79.29
79799;BME280;69283;48.024;11.090;2023-05-07T05:39:28;95325.13;;;13.00;78.72
79799;BME280;69283;48.024;11.090;2023-05-07T05:41:53;95324.34;;;13.16;78.24
79799;BME280;69283;48.024;11.090;2023-05-07T05:44:18;95328.56;;;13.45;77.76
79799;BME280;69283;48.024;11.090;2023-05-07T05:46:44;95327.09;;;13.66;77.03
79799;BME280;69283;48.024;11.090;2023-05-07T05:49:09;95322.97;;;13.92;76.20
79799;BME280;69283;48.024;11.090;2023-05-07T05:51:34;95327.06;;;14.02;74.89
79799;BME280;69283;48.024;11.090;2023-05-07T05:54:00;95324.53;;;14.31;74.08
79799;BME280;69283;48.024;11.090;2023-05-07T05:56:25;95318.59;;;14.45;73.71
79799;BME280;69283;48.024;11.090;2023-05-07T05:58:51;95327.44;;;14.61;73.48
79799;BME280;69283;48.024;11.090;2023-05-07T06:01:17;95330.63;;;14.86;73.99
79799;BME280;69283;48.024;11.090;2023-05-07T06:03:43;95336.16;;;14.90;72.45
79799;BME280;69283;48.024;11.090;2023-05-07T06:06:08;95328.31;;;15.11;71.27
79799;BME280;69283;48.024;11.090;2023-05-07T06:08:33;95325.81;;;15.26;70.30
79799;BME280;69283;48.024;11.090;2023-05-07T06:10:59;95323.75;;;15.19;70.02
79799;BME280;69283;48.024;11.090;2023-05-07T06:13:25;95332.72;;;15.19;71.50
79799;BME280;69283;48.024;11.090;2023-05-07T06:15:50;95330.84;;;15.01;70.45
79799;BME280;69283;48.024;11.090;2023-05-07T06:18:15;95329.06;;;15.08;71.16
79799;BME280;69283;48.024;11.090;2023-05-07T06:20:40;95325.97;;;15.10;70.71
79799;BME280;69283;48.024;11.090;2023-05-07T06:23:06;95326.00;;;15.13;69.96
79799;BME280;69283;48.024;11.090;2023-05-07T06:25:31;95328.19;;;15.27;69.80
79799;BME280;69283;48.024;11.090;2023-05-07T06:27:57;95333.16;;;15.21;70.55
79799;BME280;69283;48.024;11.090;2023-05-07T06:30:22;95336.16;;;15.39;70.29
79799;BME280;69283;48.024;11.090;2023-05-07T06:32:47;95335.50;;;15.46;68.88
79799;BME280;69283;48.024;11.090;2023-05-07T06:35:13;95336.56;;;15.41;69.98
79799;BME280;69283;48.024;11.090;2023-05-07T06:37:38;95331.38;;;15.33;70.15
79799;BME280;69283;48.024;11.090;2023-05-07T06:40:05;95340.97;;;15.46;69.85
79799;BME280;69283;48.024;11.090;2023-05-07T06:42:31;95340.47;;;15.63;69.04
79799;BME280;69283;48.024;11.090;2023-05-07T06:44:56;95343.38;;;15.51;69.34
79799;BME280;69283;48.024;11.090;2023-05-07T06:47:21;95349.66;;;15.55;69.73
79799;BME280;69283;48.024;11.090;2023-05-07T06:49:47;95353.16;;;15.78;70.14
79799;BME280;69283;48.024;11.090;2023-05-07T06:52:12;95349.25;;;16.06;68.80
79799;BME280;69283;48.024;11.090;2023-05-07T06:54:37;95352.50;;;16.19;68.03
79799;BME280;69283;48.024;11.090;2023-05-07T06:57:02;95352.47;;;16.15;68.13
79799;BME280;69283;48.024;11.090;2023-05-07T06:59:28;95352.84;;;16.13;67.91
79799;BME280;69283;48.024;11.090;2023-05-07T07:01:53;95348.91;;;16.11;68.10
79799;BME280;69283;48.024;11.090;2023-05-07T07:04:18;95354.16;;;16.23;68.86
79799;BME280;69283;48.024;11.090;2023-05-07T07:06:43;95344.81;;;16.24;68.82
79799;BME280;69283;48.024;11.090;2023-05-07T07:09:09;95344.19;;;16.41;68.20
79799;BME280;69283;48.024;11.090;2023-05-07T07:11:34;95348.09;;;16.40;66.86
79799;BME280;69283;48.024;11.090;2023-05-07T07:14:00;95343.38;;;16.37;67.13
79799;BME280;69283;48.024;11.090;2023-05-07T07:16:25;95344.50;;;16.33;67.84
79799;BME280;69283;48.024;11.090;2023-05-07T07:18:51;95346.84;;;16.34;67.45
79799;BME280;69283;48.024;11.090;2023-05-07T07:21:16;95342.06;;;16.24;68.20
79799;BME280;69283;48.024;11.090;2023-05-07T07:23:41;95352.84;;;16.43;67.76
79799;BME280;69283;48.024;11.090;2023-05-07T07:26:06;95345.94;;;16.57;67.58
79799;BME280;69283;48.024;11.090;2023-05-07T07:28:32;95343.03;;;16.76;67.31
79799;BME280;69283;48.024;11.090;2023-05-07T07:30:57;95337.75;;;16.94;65.65
79799;BME280;69283;48.024;11.090;2023-05-07T07:33:22;95336.16;;;16.89;65.73
79799;BME280;69283;48.024;11.090;2023-05-07T07:35:48;95344.78;;;16.91;66.30
79799;BME280;69283;48.024;11.090;2023-05-07T07:38:13;95338.97;;;17.00;65.19
79799;BME280;69283;48.024;11.090;2023-05-07T07:40:39;95341.09;;;17.21;65.31
79799;BME280;69283;48.024;11.090;2023-05-07T07:43:04;95336.66;;;17.50;65.23
79799;BME280;69283;48.024;11.090;2023-05-07T07:45:30;95351.50;;;17.45;64.17
79799;BME280;69283;48.024;11.090;2023-05-07T07:47:55;95343.41;;;17.63;63.59
79799;BME280;69283;48.024;11.090;2023-05-07T07:50:20;95344.41;;;17.92;63.14
79799;BME280;69283;48.024;11.090;2023-05-07T07:52:46;95343.22;;;17.93;60.15
79799;BME280;69283;48.024;11.090;2023-05-07T07:55:11;95347.56;;;18.01;61.03
79799;BME280;69283;48.024;11.090;2023-05-07T07:57:37;95347.69;;;18.22;59.22
79799;BME280;69283;48.024;11.090;2023-05-07T08:00:03;95339.53;;;18.40;58.46
79799;BME280;69283;48.024;11.090;2023-05-07T08:02:29;95345.47;;;18.60;58.73
79799;BME280;69283;48.024;11.090;2023-05-07T08:04:54;95336.06;;;18.61;58.39
79799;BME280;69283;48.024;11.090;2023-05-07T08:07:20;95331.47;;;18.90;57.53
79799;BME280;69283;48.024;11.090;2023-05-07T08:09:48;95335.81;;;19.09;56.10
79799;BME280;69283;48.024;11.090;2023-05-07T08:12:13;95342.09;;;19.27;55.51
79799;BME280;69283;48.024;11.090;2023-05-07T08:14:39;95350.75;;;19.51;55.87
79799;BME280;69283;48.024;11.090;2023-05-07T08:17:04;95339.72;;;19.79;55.36
79799;BME280;69283;48.024;11.090;2023-05-07T08:19:29;95357.75;;;20.09;54.17
79799;BME280;69283;48.024;11.090;2023-05-07T08:21:55;95345.19;;;20.04;52.50
79799;BME280;69283;48.024;11.090;2023-05-07T08:24:20;95343.63;;;19.99;53.68
79799;BME280;69283;48.024;11.090;2023-05-07T08:26:46;95342.03;;;20.13;54.37
79799;BME280;69283;48.024;11.090;2023-05-07T08:29:11;95341.59;;;20.25;54.91
79799;BME280;69283;48.024;11.090;2023-05-07T08:31:36;95341.59;;;20.25;54.17
79799;BME280;69283;48.024;11.090;2023-05-07T08:34:03;95341.97;;;20.27;51.96
79799;BME280;69283;48.024;11.090;2023-05-07T08:36:29;95345.09;;;20.47;54.51
79799;BME280;69283;48.024;11.090;2023-05-07T08:38:54;95345.38;;;20.67;53.91
79799;BME280;69283;48.024;11.090;2023-05-07T08:41:20;95344.59;;;20.70;53.76
79799;BME280;69283;48.024;11.090;2023-05-07T08:43:49;95346.47;;;20.87;52.82
79799;BME280;69283;48.024;11.090;2023-05-07T08:46:25;95340.94;;;20.90;51.23
79799;BME280;69283;48.024;11.090;2023-05-07T08:48:51;95334.28;;;20.81;50.15
79799;BME280;69283;48.024;11.090;2023-05-07T08:51:19;95344.19;;;20.68;50.67
79799;BME280;69283;48.024;11.090;2023-05-07T08:53:46;95349.66;;;20.75;52.30
79799;BME280;69283;48.024;11.090;2023-05-07T08:56:13;95344.50;;;20.84;50.73
79799;BME280;69283;48.024;11.090;2023-05-07T08:58:40;95348.50;;;20.72;50.24
79799;BME280;69283;48.024;11.090;2023-05-07T09:01:13;95338.56;;;20.89;49.81
79799;BME280;69283;48.024;11.090;2023-05-07T09:03:38;95344.84;;;20.93;50.47
79799;BME280;69283;48.024;11.090;2023-05-07T09:06:04;95347.28;;;20.84;50.51
79799;BME280;69283;48.024;11.090;2023-05-07T09:08:32;95348.81;;;20.88;50.08
79799;BME280;69283;48.024;11.090;2023-05-07T09:10:57;95349.97;;;20.91;49.18
79799;BME280;69283;48.024;11.090;2023-05-07T09:13:23;95341.63;;;21.05;48.73
79799;BME280;69283;48.024;11.090;2023-05-07T09:15:48;95338.13;;;20.98;47.88
79799;BME280;69283;48.024;11.090;2023-05-07T09:18:13;95331.84;;;20.93;48.07
79799;BME280;69283;48.024;11.090;2023-05-07T09:20:39;95342.03;;;21.00;47.80
79799;BME280;69283;48.024;11.090;2023-05-07T09:23:06;95334.13;;;21.09;48.46
79799;BME280;69283;48.024;11.090;2023-05-07T09:25:33;95339.19;;;21.14;47.74
79799;BME280;69283;48.024;11.090;2023-05-07T09:28:00;95329.31;;;21.20;46.71
79799;BME280;69283;48.024;11.090;2023-05-07T09:30:29;95330.78;;;21.36;46.93
79799;BME280;69283;48.024;11.090;2023-05-07T09:32:57;95330.41;;;21.34;45.53
79799;BME280;69283;48.024;11.090;2023-05-07T09:35:23;95326.03;;;21.40;44.96
79799;BME280;69283;48.024;11.090;2023-05-07T09:37:59;95330.28;;;21.51;45.40
79799;BME280;69283;48.024;11.090;2023-05-07T09:40:26;95327.44;;;21.59;44.17
79799;BME280;69283;48.024;11.090;2023-05-07T09:42:52;95327.91;;;21.53;43.83
79799;BME280;69283;48.024;11.090;2023-05-07T09:45:28;95339.03;;;21.39;43.15
79799;BME280;69283;48.024;11.090;2023-05-07T09:47:55;95330.34;;;21.41;44.66
79799;BME280;69283;48.024;11.090;2023-05-07T09:50:35;95334.00;;;21.31;44.88
79799;BME280;69283;48.024;11.090;2023-05-07T09:53:03;95332.75;;;21.39;45.42
79799;BME280;69283;48.024;11.090;2023-05-07T09:55:28;95329.91;;;21.49;46.21
79799;BME280;69283;48.024;11.090;2023-05-07T09:57:54;95338.09;;;21.56;46.41
79799;BME280;69283;48.024;11.090;2023-05-07T10:00:21;95331.31;;;21.68;45.19
79799;BME280;69283;48.024;11.090;2023-05-07T10:02:49;95328.94;;;21.70;44.23
79799;BME280;69283;48.024;11.090;2023-05-07T10:05:16;95328.94;;;21.70;44.39
79799;BME280;69283;48.024;11.090;2023-05-07T10:07:41;95330.13;;;21.69;44.46
79799;BME280;69283;48.024;11.090;2023-05-07T10:10:07;95328.19;;;21.66;45.43
79799;BME280;69283;48.024;11.090;2023-05-07T10:12:33;95336.69;;;21.38;44.58
79799;BME280;69283;48.024;11.090;2023-05-07T10:15:06;95332.78;;;21.35;44.77
79799;BME280;69283;48.024;11.090;2023-05-07T10:17:36;95329.59;;;21.37;44.48
79799;BME280;69283;48.024;11.090;2023-05-07T10:20:02;95338.22;;;21.42;44.66
79799;BME280;69283;48.024;11.090;2023-05-07T10:22:36;95333.50;;;21.43;45.69
79799;BME280;69283;48.024;11.090;2023-05-07T10:25:05;95333.44;;;21.50;45.11
79799;BME280;69283;48.024;11.090;2023-05-07T10:27:32;95331.91;;;21.42;44.59
79799;BME280;69283;48.024;11.090;2023-05-07T10:30:24;95331.91;;;21.42;44.78
79799;BME280;69283;48.024;11.090;2023-05-07T10:32:55;95328.00;;;21.43;45.39
79799;BME280;69283;48.024;11.090;2023-05-07T10:35:24;95324.81;;;21.48;44.13
79799;BME280;69283;48.024;11.090;2023-05-07T10:37:51;95326.34;;;21.52;46.01
79799;BME280;69283;48.024;11.090;2023-05-07T10:40:17;95327.56;;;21.48;43.26
79799;BME280;69283;48.024;11.090;2023-05-07T10:42:55;95324.34;;;21.53;43.24
79799;BME280;69283;48.024;11.090;2023-05-07T10:45:21;95327.03;;;21.60;43.96
79799;BME280;69283;48.024;11.090;2023-05-07T10:50:38;95322.72;;;21.63;43.97
79799;BME280;69283;48.024;11.090;2023-05-07T10:55:41;95316.78;;;21.64;44.49
79799;BME280;69283;48.024;11.090;2023-05-07T10:58:26;95327.41;;;21.62;45.04
79799;BME280;69283;48.024;11.090;2023-05-07T11:00:56;95327.41;;;21.66;44.39
79799;BME280;69283;48.024;11.090;2023-05-07T11:03:21;95324.66;;;21.62;43.74
79799;BME280;69283;48.024;11.090;2023-05-07T11:05:47;95325.47;;;21.59;44.78
79799;BME280;69283;48.024;11.090;2023-05-07T11:08:21;95320.78;;;21.56;44.45
79799;BME280;69283;48.024;11.090;2023-05-07T11:10:53;95320.78;;;21.56;44.87
79799;BME280;69283;48.024;11.090;2023-05-07T11:13:48;95315.31;;;21.52;43.74
79799;BME280;69283;48.024;11.090;2023-05-07T11:18:51;95311.66;;;21.66;44.23
79799;BME280;69283;48.024;11.090;2023-05-07T11:21:38;95314.78;;;21.68;43.63
79799;BME280;69283;48.024;11.090;2023-05-07T11:24:04;95311.19;;;21.71;43.08
79799;BME280;69283;48.024;11.090;2023-05-07T11:26:41;95311.97;;;21.72;42.97
79799;BME280;69283;48.024;11.090;2023-05-07T11:29:19;95304.41;;;21.79;43.32
79799;BME280;69283;48.024;11.090;2023-05-07T11:31:49;95300.88;;;21.79;42.79
79799;BME280;69283;48.024;11.090;2023-05-07T11:34:15;95308.44;;;21.71;44.19
79799;BME280;69283;48.024;11.090;2023-05-07T11:36:43;95302.06;;;21.78;44.53
79799;BME280;69283;48.024;11.090;2023-05-07T11:39:28;95302.81;;;21.82;42.68
79799;BME280;69283;48.024;11.090;2023-05-07T11:41:54;95310.69;;;21.80;42.63
79799;BME280;69283;48.024;11.090;2023-05-07T11:44:19;95308.31;;;21.82;42.64
79799;BME280;69283;48.024;11.090;2023-05-07T11:46:45;95304.50;;;21.72;42.79
79799;BME280;69283;48.024;11.090;2023-05-07T11:49:10;95301.00;;;21.68;42.92
79799;BME280;69283;48.024;11.090;2023-05-07T11:51:36;95305.75;;;21.64;42.60
79799;BME280;69283;48.024;11.090;2023-05-07T11:54:03;95300.25;;;21.64;43.35
79799;BME280;69283;48.024;11.090;2023-05-07T11:56:29;95299.34;;;21.74;42.09
79799;BME280;69283;48.024;11.090;2023-05-07T11:58:54;95296.59;;;21.74;42.44
79799;BME280;69283;48.024;11.090;2023-05-07T12:01:19;95299.38;;;21.71;42.42
79799;BME280;69283;48.024;11.090;2023-05-07T12:03:45;95298.69;;;21.63;42.67
79799;BME280;69283;48.024;11.090;2023-05-07T12:06:12;95294.75;;;21.61;43.18
79799;BME280;69283;48.024;11.090;2023-05-07T12:08:40;95281.38;;;21.59;43.25
79799;BME280;69283;48.024;11.090;2023-05-07T12:11:12;95289.97;;;21.68;42.76
79799;BME280;69283;48.024;11.090;2023-05-07T12:13:38;95283.22;;;21.73;42.29
79799;BME280;69283;48.024;11.090;2023-05-07T12:16:04;95286.72;;;21.77;42.10
79799;BME280;69283;48.024;11.090;2023-05-07T12:18:30;95283.94;;;21.77;42.46
79799;BME280;69283;48.024;11.090;2023-05-07T12:20:56;95283.53;;;21.78;42.65
79799;BME280;69283;48.024;11.090;2023-05-07T12:23:22;95272.97;;;21.73;42.54
79799;BME280;69283;48.024;11.090;2023-05-07T12:25:48;95285.97;;;21.73;43.25
79799;BME280;69283;48.024;11.090;2023-05-07T12:28:17;95278.47;;;21.73;42.60
79799;BME280;69283;48.024;11.090;2023-05-07T12:30:44;95269.38;;;21.76;42.96
79799;BME280;69283;48.024;11.090;2023-05-07T12:33:10;95274.91;;;21.76;41.87
79799;BME280;69283;48.024;11.090;2023-05-07T12:35:39;95270.97;;;21.74;42.78
79799;BME280;69283;48.024;11.090;2023-05-07T12:38:13;95268.28;;;21.70;43.08
79799;BME280;69283;48.024;11.090;2023-05-07T12:40:45;95268.63;;;21.72;43.63
79799;BME280;69283;48.024;11.090;2023-05-07T12:43:19;95278.44;;;21.77;42.98
79799;BME280;69283;48.024;11.090;2023-05-07T12:45:47;95273.28;;;21.82;41.76
79799;BME280;69283;48.024;11.090;2023-05-07T12:48:13;95281.19;;;21.77;41.69
79799;BME280;69283;48.024;11.090;2023-05-07T12:50:38;95273.38;;;21.72;42.67
79799;BME280;69283;48.024;11.090;2023-05-07T12:53:05;95286.09;;;21.59;42.35
79799;BME280;69283;48.024;11.090;2023-05-07T12:55:32;95286.50;;;21.57;42.08